Time;durP1;ratioP1;P1;durP2;ratioP2;P2;SDS_P1;SDS_P2;PMS_P1;PMS_P2;Temp;Humidity;BMP_temperature;BMP_pressure;BME280_temperature;BME280_humidity;BME280_pressure;Samples;Min_cycle;Max_cycle;Signal;HPM_P1;HPM_P2
2023/10/03 06:07:18;;;;;;;;;6.00;6.00;;;;;22.14;72.56;101137.34;6306862;22;45373;-68
2023/10/03 06:09:46;;;;;;;;;7.25;7.00;;;;;22.17;72.83;101145.28;6280306;22;45387;-68
2023/10/03 06:12:14;;;;;;;;;6.50;6.50;;;;;22.02;72.80;101118.25;6307201;22;46342;-67
2023/10/03 06:14:54;;;;;;;;;;;;;;;;;;;;;
2023/10/03 06:17:26;;;;;;;;;9.00;7.25;;;;;21.98;73.44;101119.44;6338949;22;67313;-67
2023/10/03 06:20:15;;;;;;;;;;;;;;;;;;;;;
2023/10/03 06:23:33;;;;;;;;;;;;;;;;;;;;;
2023/10/03 06:25:57;;;;;;;;;9.00;8.50;;;;;22.07;73.86;101150.53;6333442;22;45188;-68
2023/10/03 06:28:32;;;;;;;;;5.50;5.00;;;;;22.18;74.24;101174.19;6337787;22;45460;-67
2023/10/03 06:31:00;;;;;;;;;7.25;7.25;;;;;22.15;74.10;101161.69;6339600;22;45265;-67
2023/10/03 06:34:05;;;;;;;;;;;;;;;;;;;;;
2023/10/03 06:37:02;;;;;;;;;;;;;;;;;;;;;
2023/10/03 06:40:18;;;;;;;;;;;;;;;;;;;;;
2023/10/03 06:45:40;;;;;;;;;7.25;7.25;;;;;21.91;74.87;101128.19;6326741;22;46113;-66
2023/10/03 06:48:08;;;;;;;;;10.75;10.00;;;;;21.92;74.65;101141.66;6339309;22;45269;-66
2023/10/03 06:50:37;;;;;;;;;9.75;9.50;;;;;21.90;75.19;101138.19;6336623;22;45773;-67
2023/10/03 06:53:03;;;;;;;;;8.00;8.00;;;;;21.83;75.65;101135.06;6337910;22;45426;-66
2023/10/03 06:55:28;;;;;;;;;7.50;7.50;;;;;21.83;75.92;101145.03;6363878;22;47681;-66
2023/10/03 06:57:53;;;;;;;;;7.25;7.25;;;;;21.77;76.14;101146.38;6338442;22;46129;-66
2023/10/03 07:00:21;;;;;;;;;4.25;4.00;;;;;21.79;75.76;101159.84;6340218;22;45186;-66
2023/10/03 07:02:48;;;;;;;;;9.00;7.00;;;;;21.92;76.20;101185.16;6337667;22;45599;-66
2023/10/03 07:05:13;;;;;;;;;7.50;7.00;;;;;21.70;76.60;101171.38;6341381;22;46397;-66
2023/10/03 08:52:03;;;;;;;;;2.00;2.00;;;;;20.92;76.96;101447.28;6306358;22;45534;-79
2023/10/03 08:54:36;;;;;;;;;2.50;2.50;;;;;20.87;77.43;101441.28;6308885;22;45273;-80
2023/10/03 08:57:02;;;;;;;;;4.25;2.50;;;;;20.86;77.36;101451.25;6308718;22;45208;-80
2023/10/03 08:59:30;;;;;;;;;5.25;3.00;;;;;20.82;77.95;101452.41;6306786;22;45684;-80
2023/10/03 09:02:01;;;;;;;;;4.00;4.00;;;;;20.68;78.21;101437.03;6307331;22;45339;-80
2023/10/03 09:04:37;;;;;;;;;2.75;2.25;;;;;20.82;78.97;101459.69;6307652;22;45296;-80
2023/10/03 09:07:08;;;;;;;;;3.00;2.50;;;;;20.77;78.88;101459.97;6279746;22;45320;-80
2023/10/03 09:09:41;;;;;;;;;4.00;3.25;;;;;20.76;78.97;101470.94;6306754;22;46192;-80
2023/10/03 09:12:08;;;;;;;;;4.00;4.00;;;;;20.69;79.32;101455.03;6307211;22;45286;-80
2023/10/03 09:14:36;;;;;;;;;4.00;4.00;;;;;20.61;79.43;101446.47;6306280;22;45295;-80
2023/10/03 09:17:03;;;;;;;;;4.75;3.50;;;;;20.72;79.64;101490.13;6278725;22;45334;-80
2023/10/03 09:19:44;;;;;;;;;3.25;3.25;;;;;20.72;79.22;101502.81;6307975;22;45875;-80
2023/10/03 09:22:10;;;;;;;;;1.00;1.00;;;;;20.73;78.74;101504.53;6283923;22;45287;-80
2023/10/03 09:24:43;;;;;;;;;2.00;2.00;;;;;20.70;78.77;101519.19;6308423;22;45636;-79
2023/10/03 09:27:11;;;;;;;;;1.00;1.00;;;;;20.67;78.83;101511.25;6309245;22;45312;-80
2023/10/03 09:29:36;;;;;;;;;3.00;2.00;;;;;20.65;78.90;101506.91;6281244;22;47819;-80
2023/10/03 09:32:15;;;;;;;;;3.00;2.00;;;;;20.61;78.45;101517.00;6309207;22;45228;-80
2023/10/03 09:34:46;;;;;;;;;2.00;2.00;;;;;20.67;78.17;101532.94;6309353;22;45267;-80
2023/10/03 09:37:12;;;;;;;;;2.00;2.00;;;;;20.61;77.90;101530.56;6308805;22;45167;-80
2023/10/03 09:39:48;;;;;;;;;3.25;2.75;;;;;20.66;77.80;101554.72;6307885;22;45409;-80
2023/10/03 09:42:19;;;;;;;;;2.50;1.00;;;;;20.58;76.85;101541.63;6307429;22;45166;-80
2023/10/03 09:44:48;;;;;;;;;2.00;2.00;;;;;20.58;77.11;101541.63;6305934;22;45195;-80
2023/10/03 09:47:18;;;;;;;;;3.00;3.00;;;;;20.60;76.37;101552.34;6308806;22;45462;-80
2023/10/03 09:49:44;;;;;;;;;2.25;2.25;;;;;20.62;76.71;101559.44;6305815;22;47891;-80
2023/10/03 09:52:24;;;;;;;;;3.75;2.75;;;;;20.54;76.01;101561.75;6307990;22;45438;-82
2023/10/03 09:54:54;;;;;;;;;2.75;2.00;;;;;20.55;76.10;101583.38;6280836;22;45233;-82
2023/10/03 09:57:24;;;;;;;;;2.50;2.25;;;;;20.49;75.28;101578.31;6280444;22;45536;-82
2023/10/03 09:59:50;;;;;;;;;3.00;2.00;;;;;20.38;75.62;101569.06;6307756;22;46055;-82
2023/10/03 10:02:30;;;;;;;;;1.50;1.50;;;;;20.44;75.47;101580.44;6308968;22;45380;-81
2023/10/03 10:05:04;;;;;;;;;3.25;2.50;;;;;20.48;75.24;101592.84;6309458;22;45605;-82
2023/10/03 10:07:35;;;;;;;;;2.00;2.00;;;;;20.49;75.04;101605.41;6308791;22;45467;-82
2023/10/03 10:10:12;;;;;;;;;2.00;2.00;;;;;20.44;75.17;101596.69;6281596;22;47190;-82
2023/10/03 10:12:59;;;;;;;;;2.00;1.50;;;;;20.48;74.89;101611.84;6308092;22;45472;-83
2023/10/03 10:15:27;;;;;;;;;3.00;2.00;;;;;20.32;75.23;101582.03;6308969;22;45274;-82
2023/10/03 10:17:57;;;;;;;;;2.50;2.00;;;;;20.42;74.77;101608.63;6280453;22;45420;-82
2023/10/03 10:20:38;;;;;;;;;2.25;2.00;;;;;20.43;74.84;101624.78;6280835;22;47887;-83
2023/10/03 10:25:42;;;;;;;;;1.75;1.00;;;;;20.42;73.60;101624.88;6306070;22;45289;-83
2023/10/03 10:28:17;;;;;;;;;2.75;1.25;;;;;20.48;73.94;101644.38;6278457;22;45190;-82
2023/10/03 10:31:08;;;;;;;;;2.50;2.00;;;;;20.48;73.54;101649.81;6307332;22;47331;-82
2023/10/03 10:33:34;;;;;;;;;3.00;3.00;;;;;20.46;73.37;101650.84;6310326;22;45199;-83
2023/10/03 10:36:03;;;;;;;;;2.75;2.00;;;;;20.54;72.92;101651.25;6281459;22;45333;-84
2023/10/03 10:38:31;;;;;;;;;4.50;3.50;;;;;20.56;73.27;101660.16;6307816;22;45168;-83
2023/10/03 10:47:06;;;;;;;;;3.00;3.00;;;;;20.61;72.29;101677.03;6292457;22;45237;-83
2023/10/03 10:49:33;;;;;;;;;3.00;2.75;;;;;20.67;71.18;101689.41;6308233;22;45196;-83
2023/10/03 10:52:01;;;;;;;;;4.25;3.50;;;;;20.61;70.57;101685.19;6306933;22;45888;-83
2023/10/03 10:54:27;;;;;;;;;3.00;3.00;;;;;20.68;70.11;101704.72;6280581;22;45283;-82
2023/10/03 10:57:06;;;;;;;;;3.25;3.25;;;;;20.57;70.48;101688.19;6309038;22;45275;-81
2023/10/03 10:59:39;;;;;;;;;4.75;2.75;;;;;20.68;70.66;101702.88;6309540;22;45148;-82
2023/10/03 11:02:15;;;;;;;;;2.00;2.00;;;;;20.70;70.07;101709.09;6309190;22;46021;-82
2023/10/03 11:04:40;;;;;;;;;4.75;3.00;;;;;20.71;70.23;101713.56;6309722;22;45376;-82
2023/10/03 11:07:05;;;;;;;;;2.75;2.25;;;;;20.63;70.63;101702.28;6308968;22;45411;-82
2023/10/03 11:09:35;;;;;;;;;2.00;2.00;;;;;20.61;69.18;101693.31;6309078;22;45196;-81
2023/10/03 11:12:04;;;;;;;;;4.50;4.50;;;;;20.66;69.05;101710.22;6303841;22;47189;-81
2023/10/03 11:14:31;;;;;;;;;4.00;3.00;;;;;20.77;69.00;101722.31;6308617;22;45345;-83
2023/10/03 11:16:58;;;;;;;;;4.25;2.75;;;;;20.77;69.27;101728.59;6308638;22;45274;-83
2023/10/03 11:19:24;;;;;;;;;2.75;2.75;;;;;20.81;68.21;101723.84;6309228;22;45227;-82
2023/10/03 11:21:50;;;;;;;;;3.25;2.50;;;;;20.81;67.80;101727.41;6281034;22;47127;-81
2023/10/03 11:24:21;;;;;;;;;2.00;2.00;;;;;20.87;68.13;101739.78;6309043;22;45200;-80
2023/10/03 11:26:50;;;;;;;;;3.75;3.00;;;;;20.89;67.82;101738.69;6280986;22;45215;-81
2023/10/03 11:29:46;;;;;;;;;4.00;4.00;;;;;20.93;68.57;101739.38;6280499;22;45446;-81
2023/10/03 11:32:32;;;;;;;;;3.00;3.00;;;;;20.97;68.20;101746.38;6280975;22;47367;-80
2023/10/03 11:34:58;;;;;;;;;6.00;3.00;;;;;20.89;68.11;101735.97;6306346;22;45498;-81
2023/10/03 11:37:32;;;;;;;;;3.00;2.00;;;;;20.88;68.07;101730.66;6307871;22;45247;-81
2023/10/03 11:40:19;;;;;;;;;3.50;2.25;;;;;21.05;67.40;101759.50;6278244;22;45594;-81
2023/10/03 11:42:58;;;;;;;;;4.25;4.00;;;;;20.98;67.35;101744.53;6280621;22;47411;-81
2023/10/03 11:45:29;;;;;;;;;2.00;2.00;;;;;21.10;66.69;101760.09;6308430;22;45139;-81
2023/10/03 11:47:58;;;;;;;;;3.00;3.00;;;;;;;;6309533;22;45359;-81
2023/10/03 11:50:25;;;;;;;;;5.75;3.50;;;;;21.13;65.44;101776.19;6308170;22;45177;-80
2023/10/03 11:52:51;;;;;;;;;4.50;3.00;;;;;21.11;64.98;101772.69;6280584;22;47164;-81
2023/10/03 11:55:17;;;;;;;;;3.50;3.00;;;;;21.05;64.97;101768.50;6302707;22;45289;-80
2023/10/03 11:57:42;;;;;;;;;3.00;3.00;;;;;21.03;64.95;101751.47;6276389;22;45459;-81
2023/10/03 12:00:14;;;;;;;;;3.75;3.00;;;;;21.00;65.00;101745.31;6303999;22;47544;-81
2023/10/03 12:02:41;;;;;;;;;3.50;2.75;;;;;21.05;64.40;101759.50;6304470;22;45416;-81
2023/10/03 12:05:07;;;;;;;;;3.75;3.00;;;;;21.10;65.17;101769.09;6303145;22;45380;-83
2023/10/03 12:07:32;;;;;;;;;5.00;3.25;;;;;21.09;65.06;101764.63;6300857;22;45421;-83
2023/10/03 12:09:59;;;;;;;;;2.00;2.00;;;;;21.21;64.08;101782.00;6294879;22;45761;-81
2023/10/03 12:12:26;;;;;;;;;0.25;0.25;;;;;21.19;64.93;101780.38;6297321;22;46639;-82
2023/10/03 12:14:51;;;;;;;;;2.75;2.25;;;;;21.24;64.50;101780.97;6303550;22;45341;-82
2023/10/03 12:17:17;;;;;;;;;4.00;4.00;;;;;21.21;64.88;101768.44;6303557;22;45374;-83
2023/10/03 12:19:42;;;;;;;;;1.25;1.00;;;;;21.26;65.50;101782.59;6303373;22;45575;-83
2023/10/03 12:22:08;;;;;;;;;3.00;3.00;;;;;21.34;64.37;101801.16;6303018;22;50497;-83
2023/10/03 12:24:33;;;;;;;;;2.25;2.25;;;;;21.38;63.38;101812.72;6304960;22;45271;-83
2023/10/03 12:27:04;;;;;;;;;2.50;2.00;;;;;21.34;63.93;101812.03;6304485;22;45411;-83
2023/10/03 12:29:32;;;;;;;;;2.00;2.00;;;;;21.33;63.67;101818.41;6304208;22;45387;-83
2023/10/03 12:31:58;;;;;;;;;2.25;2.25;;;;;21.33;64.12;101815.69;6303434;22;45372;-83
2023/10/03 12:34:25;;;;;;;;;1.00;1.00;;;;;21.38;64.08;101829.00;6277165;22;45710;-83
2023/10/03 12:36:51;;;;;;;;;2.75;1.75;;;;;21.38;63.65;101821.72;6305074;22;45427;-83
2023/10/03 12:39:18;;;;;;;;;2.75;2.75;;;;;21.26;63.51;101806.19;6305650;22;45349;-83
2023/10/03 12:41:46;;;;;;;;;2.00;2.00;;;;;21.37;63.07;101830.00;6304548;22;45911;-83
2023/10/03 12:44:12;;;;;;;;;1.50;1.00;;;;;21.38;62.59;101820.84;6276397;22;45356;-83
2023/10/03 12:46:38;;;;;;;;;1.50;1.50;;;;;21.42;62.42;101838.72;6277101;22;45338;-83
2023/10/03 12:49:04;;;;;;;;;3.50;2.25;;;;;21.38;62.46;101827.16;6304650;22;45439;-83
2023/10/03 12:51:29;;;;;;;;;1.50;1.00;;;;;21.51;62.32;101846.34;6276980;22;47843;-83
2023/10/03 12:53:55;;;;;;;;;3.25;3.25;;;;;21.45;61.71;101844.84;6305035;22;45246;-83
2023/10/03 12:56:20;;;;;;;;;3.75;3.00;;;;;21.51;61.98;101876.22;6304305;22;45806;-83
2023/10/03 12:58:46;;;;;;;;;0.00;0.00;;;;;21.45;60.87;101863.84;6304461;22;45651;-83
2023/10/03 13:01:12;;;;;;;;;1.00;1.00;;;;;21.32;60.26;101846.56;6276764;22;48038;-83
2023/10/03 13:03:39;;;;;;;;;1.25;1.25;;;;;21.38;59.91;101883.31;6302955;22;45820;-83
2023/10/03 13:06:04;;;;;;;;;2.00;1.00;;;;;21.22;59.29;101872.50;6305101;22;45377;-83
2023/10/03 13:08:30;;;;;;;;;1.25;1.00;;;;;21.20;59.24;101872.59;6304767;22;45262;-82
2023/10/03 13:11:05;;;;;;;;;1.00;1.00;;;;;21.25;59.72;101897.63;6275212;22;47584;-83
2023/10/03 13:13:31;;;;;;;;;1.75;1.00;;;;;21.11;59.84;101878.56;6276366;22;45480;-82
2023/10/03 13:15:57;;;;;;;;;1.50;1.00;;;;;21.22;59.59;101903.25;6303290;22;45416;-84
2023/10/03 13:18:26;;;;;;;;;1.25;1.25;;;;;21.07;59.55;101872.44;6304521;22;45570;-82
2023/10/03 13:20:53;;;;;;;;;2.00;2.00;;;;;21.20;59.92;101904.28;6307933;22;45385;-83
2023/10/03 13:23:19;;;;;;;;;1.75;1.75;;;;;21.18;59.75;101895.38;6306376;22;45464;-82
2023/10/03 13:25:44;;;;;;;;;0.75;0.75;;;;;21.10;59.52;101895.84;6307623;22;45265;-82
2023/10/03 13:28:13;;;;;;;;;1.50;1.50;;;;;21.09;60.17;101886.78;6308015;22;45203;-82
2023/10/03 13:30:39;;;;;;;;;1.00;1.00;;;;;21.10;59.85;101891.28;6280166;22;47056;-82
2023/10/03 13:33:05;;;;;;;;;1.00;1.00;;;;;21.21;60.40;101914.19;6308511;22;45225;-81
2023/10/03 13:35:33;;;;;;;;;3.50;3.00;;;;;21.21;59.85;101909.63;6307961;22;45199;-83
2023/10/03 13:37:58;;;;;;;;;2.50;2.50;;;;;21.15;59.79;101903.69;6280396;22;45571;-82
2023/10/03 13:40:24;;;;;;;;;2.00;1.00;;;;;21.23;60.04;101926.72;6308723;22;45589;-83
2023/10/03 13:42:51;;;;;;;;;2.00;2.00;;;;;21.19;60.12;101908.84;6280174;22;45237;-83
2023/10/03 13:45:17;;;;;;;;;1.50;1.00;;;;;21.17;60.23;101904.50;6308277;22;45300;-83
2023/10/03 13:47:43;;;;;;;;;2.00;2.00;;;;;21.27;60.60;101927.41;6281073;22;45236;-83
2023/10/03 13:50:09;;;;;;;;;2.00;2.00;;;;;21.21;60.12;101923.22;6308180;22;45416;-82
2023/10/03 13:52:40;;;;;;;;;1.00;1.00;;;;;21.14;60.21;101899.25;6280098;22;45476;-83
2023/10/03 13:55:06;;;;;;;;;3.00;2.00;;;;;21.20;60.61;101915.16;6307536;22;45281;-83
2023/10/03 13:57:34;;;;;;;;;3.00;3.00;;;;;21.28;59.89;101929.16;6280760;22;45946;-83
2023/10/03 14:00:00;;;;;;;;;1.00;1.00;;;;;21.27;58.64;101931.00;6280803;22;48039;-83
2023/10/03 14:02:25;;;;;;;;;2.50;1.00;;;;;21.26;60.11;101931.09;6308066;22;45423;-83
2023/10/03 14:04:50;;;;;;;;;4.00;2.50;;;;;21.19;60.05;101917.00;6279965;22;45301;-82
2023/10/03 14:07:16;;;;;;;;;2.25;2.25;;;;;21.26;59.38;101931.97;6280407;22;45341;-82
2023/10/03 14:09:42;;;;;;;;;1.00;1.00;;;;;21.36;58.96;101956.75;6308537;22;45325;-82
2023/10/03 14:12:07;;;;;;;;;2.00;2.00;;;;;21.29;59.27;101933.63;6307166;22;45238;-82
2023/10/03 14:14:33;;;;;;;;;1.75;1.00;;;;;21.34;59.16;101945.09;6279378;22;45755;-83
2023/10/03 14:17:02;;;;;;;;;1.75;1.75;;;;;21.31;58.99;101938.97;6307350;22;45266;-83
2023/10/03 14:19:28;;;;;;;;;4.00;1.25;;;;;21.42;57.97;101959.09;6279761;22;48140;-82
2023/10/03 14:21:54;;;;;;;;;2.50;2.50;;;;;21.46;58.72;101974.25;6299074;22;45697;-81
2023/10/03 14:24:20;;;;;;;;;2.75;1.75;;;;;21.44;56.82;101973.47;6303348;22;45163;-81
2023/10/03 14:26:46;;;;;;;;;1.00;1.00;;;;;21.40;55.33;101985.50;6307917;22;45372;-81
2023/10/03 14:29:11;;;;;;;;;0.25;0.25;;;;;21.35;56.03;101986.69;6307858;22;45193;-81
2023/10/03 14:31:36;;;;;;;;;1.00;1.00;;;;;21.34;55.88;101996.69;6308092;22;45422;-81
2023/10/03 14:34:03;;;;;;;;;3.75;1.00;;;;;21.38;55.63;102010.97;6309144;22;45227;-80
2023/10/03 14:36:29;;;;;;;;;1.00;1.00;;;;;21.40;55.43;102015.38;6279816;22;45585;-81
2023/10/03 14:38:54;;;;;;;;;0.50;0.00;;;;;21.39;55.03;102031.75;6308225;22;45380;-80
2023/10/03 14:41:19;;;;;;;;;1.50;1.00;;;;;21.38;53.66;102003.69;6308863;22;45987;-80
2023/10/03 14:43:45;;;;;;;;;1.00;1.00;;;;;21.29;53.33;102004.25;6305975;22;53449;-80
2023/10/03 14:46:10;;;;;;;;;2.75;1.00;;;;;21.32;52.54;102011.31;6280997;22;45269;-81
2023/10/03 14:48:40;;;;;;;;;1.50;0.00;;;;;21.35;52.49;102036.47;6308337;22;45178;-81
2023/10/03 14:51:06;;;;;;;;;0.50;0.00;;;;;21.33;52.44;102032.94;6307961;22;45278;-81
2023/10/03 14:53:31;;;;;;;;;0.00;0.00;;;;;21.32;52.21;102036.66;6281287;22;45404;-81
2023/10/03 14:55:58;;;;;;;;;1.50;1.00;;;;;21.27;53.15;102027.91;6280517;22;45368;-80
2023/10/03 14:58:23;;;;;;;;;1.50;1.00;;;;;21.24;53.03;102031.66;6280347;22;47283;-80
2023/10/03 15:00:49;;;;;;;;;0.75;0.00;;;;;21.23;53.66;102034.44;6280572;22;45270;-81
2023/10/03 15:03:15;;;;;;;;;1.50;1.50;;;;;21.26;53.48;102034.28;6308160;22;45270;-81
2023/10/03 15:05:44;;;;;;;;;1.00;1.00;;;;;21.30;53.58;102041.31;6308186;22;45183;-80
2023/10/03 15:08:09;;;;;;;;;1.50;0.00;;;;;21.21;53.74;102041.81;6280570;22;47297;-80
2023/10/03 15:10:35;;;;;;;;;1.00;0.00;;;;;21.17;52.36;102034.81;6308137;22;45168;-81
2023/10/03 15:13:00;;;;;;;;;1.25;1.00;;;;;21.28;51.50;102054.97;6308453;22;45206;-78
2023/10/03 15:15:27;;;;;;;;;0.00;0.00;;;;;21.24;50.51;102045.22;6308269;22;45273;-79
2023/10/03 15:17:52;;;;;;;;;1.75;0.50;;;;;21.32;49.65;102054.75;6308348;22;45257;-79
2023/10/03 15:20:21;;;;;;;;;0.00;0.00;;;;;21.27;49.76;102046.91;6307754;22;45190;-79
2023/10/03 15:22:47;;;;;;;;;1.00;1.00;;;;;21.31;49.60;102053.91;6307934;22;45227;-79
2023/10/03 15:25:15;;;;;;;;;1.00;1.00;;;;;21.31;50.09;102055.75;6281054;22;45749;-79
2023/10/03 15:27:42;;;;;;;;;1.00;1.00;;;;;21.31;49.52;102064.75;6307951;22;45149;-79
2023/10/03 15:30:09;;;;;;;;;1.00;1.00;;;;;21.22;49.93;102060.75;6279679;22;45321;-80
2023/10/03 15:32:34;;;;;;;;;0.25;0.00;;;;;21.19;49.68;102054.59;6280571;22;45284;-79
2023/10/03 15:35:01;;;;;;;;;0.00;0.00;;;;;21.24;49.87;102069.66;6280986;22;46089;-79
2023/10/03 15:37:26;;;;;;;;;1.75;0.00;;;;;21.18;50.43;102063.69;6308280;22;46291;-79
2023/10/03 15:39:51;;;;;;;;;0.25;0.00;;;;;21.25;50.25;102070.53;6308633;22;45203;-79
2023/10/03 15:42:18;;;;;;;;;0.00;0.00;;;;;21.18;50.25;102069.13;6308900;22;45209;-79
2023/10/03 15:44:43;;;;;;;;;0.00;0.00;;;;;21.17;49.70;102078.25;6307716;22;45393;-79
2023/10/03 15:47:11;;;;;;;;;1.25;1.00;;;;;21.18;49.77;102083.56;6279606;22;47259;-79
2023/10/03 15:49:36;;;;;;;;;0.25;0.25;;;;;21.19;49.26;102092.63;6304187;22;45414;-79
2023/10/03 15:52:03;;;;;;;;;0.00;0.00;;;;;21.12;49.20;102086.66;6303707;22;45647;-79
2023/10/03 15:54:29;;;;;;;;;0.00;0.00;;;;;21.13;50.15;102095.66;6306942;22;45187;-79
2023/10/03 15:56:55;;;;;;;;;0.00;0.00;;;;;21.10;49.84;102086.75;6306626;22;45262;-79
2023/10/03 15:59:23;;;;;;;;;1.25;0.75;;;;;21.11;50.60;102106.59;6278423;22;45168;-80
2023/10/03 16:01:49;;;;;;;;;0.00;0.00;;;;;21.09;50.28;102106.69;6305322;22;45282;-80
2023/10/03 16:04:14;;;;;;;;;0.00;0.00;;;;;21.08;49.88;102113.09;6307354;22;45353;-80
2023/10/03 16:06:40;;;;;;;;;1.00;1.00;;;;;20.90;49.94;102089.69;6304763;22;47152;-80
2023/10/03 16:09:12;;;;;;;;;1.00;1.00;;;;;21.02;49.36;102116.16;6306454;22;45281;-80
2023/10/03 16:11:37;;;;;;;;;0.25;0.00;;;;;20.99;49.22;102121.75;6307248;22;45144;-80
2023/10/03 16:14:03;;;;;;;;;0.75;0.75;;;;;21.07;49.99;102137.63;6306873;22;45238;-80
2023/10/03 16:16:29;;;;;;;;;0.00;0.00;;;;;21.05;49.76;102132.28;6278203;22;47974;-79
2023/10/03 16:18:56;;;;;;;;;2.00;0.00;;;;;21.05;50.13;102143.13;6279437;22;45775;-81
2023/10/03 16:21:22;;;;;;;;;0.50;0.50;;;;;20.95;50.09;102128.31;6278579;22;45339;-80
2023/10/03 16:23:47;;;;;;;;;0.50;0.50;;;;;20.98;49.98;102133.56;6306225;22;45492;-80
2023/10/03 16:26:13;;;;;;;;;0.50;0.25;;;;;21.08;49.73;102151.13;6305672;22;45256;-80
2023/10/03 16:28:38;;;;;;;;;0.00;0.00;;;;;21.02;49.69;102145.13;6306163;22;45305;-80
2023/10/03 16:31:05;;;;;;;;;2.75;1.00;;;;;21.10;49.53;102153.75;6306699;22;45265;-80
2023/10/03 16:33:30;;;;;;;;;0.75;0.75;;;;;20.96;49.53;102140.91;6279315;22;45373;-80
2023/10/03 16:35:56;;;;;;;;;1.50;1.00;;;;;21.00;49.31;102147.94;6304791;22;45226;-81
2023/10/03 16:38:21;;;;;;;;;1.00;1.00;;;;;21.00;49.30;102158.78;6306216;22;45235;-80
2023/10/03 16:40:47;;;;;;;;;3.00;1.00;;;;;21.01;49.57;102157.81;6305890;22;45310;-79
2023/10/03 16:43:13;;;;;;;;;2.00;1.00;;;;;21.01;48.67;102160.53;6278937;22;45775;-79
2023/10/03 16:45:39;;;;;;;;;1.00;1.00;;;;;21.04;49.27;102165.78;6305397;22;45634;-79
2023/10/03 16:48:07;;;;;;;;;0.50;0.50;;;;;21.02;49.87;102164.16;6279371;22;45726;-79
2023/10/03 16:50:36;;;;;;;;;1.00;1.00;;;;;21.02;49.67;102175.00;6303492;22;45301;-79
2023/10/03 16:53:02;;;;;;;;;0.00;0.00;;;;;20.96;49.71;102173.47;6306120;22;45376;-81
2023/10/03 16:55:27;;;;;;;;;1.25;0.75;;;;;20.85;49.92;102157.78;6277800;22;46638;-81
2023/10/03 16:57:53;;;;;;;;;1.00;1.00;;;;;20.97;50.21;102175.25;6306629;22;45246;-81
2023/10/03 17:00:19;;;;;;;;;2.00;0.25;;;;;21.01;50.40;102187.66;6306052;22;45198;-79
2023/10/03 17:02:45;;;;;;;;;1.00;1.00;;;;;20.97;50.21;102180.66;6306054;22;45271;-79
2023/10/03 17:05:13;;;;;;;;;3.75;2.00;;;;;20.82;50.41;102165.22;6304852;22;46354;-79
2023/10/03 17:07:40;;;;;;;;;4.00;2.00;;;;;20.98;50.46;102205.97;6304171;22;45238;-79
2023/10/03 17:10:07;;;;;;;;;0.00;0.00;;;;;20.91;50.24;102197.28;6306748;22;45219;-79
2023/10/03 17:12:35;;;;;;;;;1.00;1.00;;;;;20.89;50.39;102202.78;6305673;22;45252;-79
2023/10/03 17:15:01;;;;;;;;;0.50;0.00;;;;;20.79;50.58;102190.66;6306964;22;45387;-79
2023/10/03 17:17:26;;;;;;;;;0.75;0.75;;;;;20.84;50.36;102193.13;6307014;22;45270;-79
2023/10/03 17:19:51;;;;;;;;;0.50;0.50;;;;;20.90;50.67;102206.41;6306764;22;45325;-79
2023/10/03 17:22:16;;;;;;;;;0.75;0.75;;;;;20.81;50.76;102198.72;6307836;22;45359;-79
2023/10/03 17:24:42;;;;;;;;;1.00;1.00;;;;;20.87;51.02;102211.97;6307329;22;46492;-79
2023/10/03 17:27:08;;;;;;;;;2.75;1.75;;;;;20.81;50.68;102201.44;6279761;22;45698;-80
2023/10/03 17:29:33;;;;;;;;;0.00;0.00;;;;;20.84;50.87;102213.00;6307893;22;45211;-79
2023/10/03 17:32:01;;;;;;;;;2.00;2.00;;;;;20.83;50.80;102216.69;6279426;22;45222;-79
2023/10/03 17:34:29;;;;;;;;;2.50;1.00;;;;;20.87;51.18;102218.28;6304160;22;45625;-79
2023/10/03 17:36:54;;;;;;;;;1.75;1.75;;;;;20.86;51.12;102215.63;6279165;22;45232;-79
2023/10/03 17:39:19;;;;;;;;;1.25;1.00;;;;;20.87;51.26;102223.69;6279699;22;45738;-79
2023/10/03 17:41:45;;;;;;;;;2.00;2.00;;;;;20.70;51.27;102199.28;6307538;22;45144;-79
2023/10/03 17:44:10;;;;;;;;;2.00;2.00;;;;;20.78;51.53;102226.00;6306369;22;45351;-79
2023/10/03 17:46:36;;;;;;;;;1.75;1.00;;;;;20.74;51.65;102222.59;6279572;22;45293;-79
2023/10/03 17:49:04;;;;;;;;;2.50;0.25;;;;;20.72;51.42;102224.50;6307595;22;45269;-79
2023/10/03 17:51:32;;;;;;;;;3.75;1.75;;;;;20.76;52.00;102236.94;6305581;22;45430;-79
2023/10/03 17:53:58;;;;;;;;;1.50;0.00;;;;;20.73;51.61;102232.56;6301346;22;45290;-79
2023/10/03 17:56:24;;;;;;;;;1.75;1.25;;;;;20.70;52.19;102240.88;6301860;22;46490;-78
2023/10/03 17:58:49;;;;;;;;;3.75;1.00;;;;;20.64;51.94;102248.44;6302834;22;45341;-79
2023/10/03 18:01:25;;;;;;;;;1.00;1.00;;;;;20.64;52.03;102237.59;6303479;22;45420;-78
2023/10/03 18:03:53;;;;;;;;;1.75;1.75;;;;;20.58;52.31;102246.00;6276162;22;48196;-79
2023/10/03 18:06:20;;;;;;;;;1.00;1.00;;;;;20.57;52.53;102244.25;6275145;22;45389;-79
2023/10/03 18:08:45;;;;;;;;;3.00;2.75;;;;;20.62;52.24;102250.31;6275537;22;45323;-77
2023/10/03 18:11:11;;;;;;;;;4.00;4.00;;;;;20.53;52.61;102243.50;6304822;22;45591;-78
2023/10/03 18:13:36;;;;;;;;;3.25;3.25;;;;;20.56;52.88;102267.78;6276465;22;47358;-78
2023/10/03 18:16:01;;;;;;;;;2.50;2.50;;;;;20.52;52.87;102260.75;6304409;22;45364;-77
2023/10/03 18:18:27;;;;;;;;;4.00;2.00;;;;;20.50;53.01;102259.97;6304692;22;45335;-77
2023/10/03 18:20:52;;;;;;;;;2.00;2.00;;;;;20.52;53.21;102274.31;6276798;22;46023;-78
2023/10/03 18:23:21;;;;;;;;;3.25;2.00;;;;;20.52;53.23;102279.75;6304133;22;45293;-77
2023/10/03 18:25:47;;;;;;;;;1.50;1.50;;;;;20.48;53.13;102272.69;6275982;22;45318;-78
2023/10/03 18:28:14;;;;;;;;;1.00;1.00;;;;;20.47;53.30;102273.69;6277778;22;45374;-79
2023/10/03 18:30:39;;;;;;;;;1.75;1.50;;;;;20.45;53.45;102275.59;6304670;22;45468;-79
2023/10/03 18:33:05;;;;;;;;;1.25;1.00;;;;;20.37;53.83;102267.81;6304117;22;45588;-79
2023/10/03 18:35:30;;;;;;;;;2.00;1.00;;;;;20.36;53.29;102271.47;6304653;22;45406;-80
2023/10/03 18:37:56;;;;;;;;;1.75;1.75;;;;;20.39;53.84;102281.31;6304807;22;46043;-79
2023/10/03 18:40:21;;;;;;;;;6.00;3.00;;;;;20.37;53.85;102286.81;6276943;22;45429;-79
2023/10/03 18:42:46;;;;;;;;;3.75;2.25;;;;;20.30;54.19;102269.09;6277175;22;46198;-78
2023/10/03 18:45:12;;;;;;;;;2.00;2.00;;;;;20.34;53.99;102285.09;6304462;22;45281;-79
2023/10/03 18:47:40;;;;;;;;;2.75;2.75;;;;;20.32;54.01;102287.03;6276887;22;45411;-79
2023/10/03 18:50:06;;;;;;;;;4.25;3.25;;;;;20.27;53.86;102293.63;6276540;22;45386;-78
2023/10/03 18:52:32;;;;;;;;;2.25;2.25;;;;;20.25;53.97;102295.56;6276244;22;47415;-78
2023/10/03 18:54:59;;;;;;;;;3.75;2.00;;;;;20.24;54.26;102305.50;6304948;22;45352;-79
2023/10/03 18:57:25;;;;;;;;;1.50;1.50;;;;;20.21;54.74;102308.34;6274708;22;45397;-79
2023/10/03 18:59:50;;;;;;;;;3.50;2.50;;;;;20.11;54.26;102293.50;6304262;22;45354;-79
2023/10/03 19:02:16;;;;;;;;;0.00;0.00;;;;;20.20;54.55;102319.28;6304086;22;45998;-79
2023/10/03 19:04:41;;;;;;;;;3.75;2.25;;;;;20.16;54.51;102324.88;6304573;22;45473;-78
2023/10/03 19:07:08;;;;;;;;;1.25;1.25;;;;;20.13;54.80;102326.81;6304531;22;45317;-79
2023/10/03 19:09:33;;;;;;;;;1.00;1.00;;;;;20.17;54.66;102328.44;6304429;22;45227;-79
2023/10/03 19:11:59;;;;;;;;;3.00;2.50;;;;;20.12;54.96;102319.66;6304329;22;45394;-79
2023/10/03 19:14:24;;;;;;;;;2.00;1.00;;;;;20.09;54.95;102327.94;6304187;22;45290;-79
2023/10/03 19:16:50;;;;;;;;;2.50;1.75;;;;;20.08;54.71;102332.47;6304248;22;45471;-79
2023/10/03 19:19:15;;;;;;;;;1.25;1.25;;;;;20.07;54.32;102332.56;6277418;22;45434;-79
2023/10/03 19:21:41;;;;;;;;;2.50;2.00;;;;;20.12;54.66;102354.91;6275435;22;48186;-78
2023/10/03 19:24:07;;;;;;;;;2.00;2.00;;;;;20.07;54.78;102346.09;6277127;22;45533;-78
2023/10/03 19:26:33;;;;;;;;;2.75;2.00;;;;;20.05;54.99;102350.72;6303631;22;45328;-78
2023/10/03 19:28:58;;;;;;;;;2.00;2.00;;;;;20.06;54.83;102361.47;6304650;22;45403;-78
2023/10/03 19:31:24;;;;;;;;;3.75;2.00;;;;;20.06;55.04;102368.72;6303324;22;45695;-78
2023/10/03 19:33:49;;;;;;;;;1.25;1.25;;;;;19.91;55.26;102356.75;6302298;22;45388;-78
2023/10/03 19:36:15;;;;;;;;;1.75;1.75;;;;;19.92;55.32;102361.25;6303533;22;45333;-81
2023/10/03 19:38:42;;;;;;;;;2.00;1.25;;;;;20.01;55.14;102378.91;6303024;22;45526;-81
2023/10/03 19:41:12;;;;;;;;;2.00;2.00;;;;;19.97;55.48;102372.75;6304317;22;45575;-81